createdAt,value
2023-10-14T00:01:51.041Z,101496.94
2023-10-14T00:04:18.777Z,101391.97
2023-10-14T00:06:46.445Z,101423.09
2023-10-14T00:09:14.032Z,101419.56
2023-10-14T00:11:41.796Z,101381.41
2023-10-14T00:14:10.480Z,101411.81
2023-10-14T00:16:38.341Z,101369.53
2023-10-14T00:19:10.852Z,101382.69
2023-10-14T00:21:39.057Z,101469.34
2023-10-14T00:24:07.231Z,101379.88
2023-10-14T00:26:36.116Z,101432.69
2023-10-14T00:29:04.508Z,101460.34
2023-10-14T00:31:32.164Z,101404.06
2023-10-14T00:34:00.115Z,101372.84
2023-10-14T00:36:29.552Z,101460.34
2023-10-14T00:38:57.641Z,101405.84
2023-10-14T00:41:26.234Z,101404.28
2023-10-14T00:43:54.814Z,101453.09
2023-10-14T00:46:23.081Z,101460.97
2023-10-14T00:48:52.066Z,101402.81
2023-10-14T00:51:19.711Z,101458.34
2023-10-14T00:53:51.611Z,101357.72
2023-10-14T00:56:21.552Z,101370.63
2023-10-14T00:58:49.114Z,101458.94
2023-10-14T01:01:16.726Z,101391.28
2023-10-14T01:03:45.396Z,101399.19
2023-10-14T01:06:13.038Z,101355.00
2023-10-14T01:08:40.659Z,101372.34
2023-10-14T01:11:12.809Z,101402.59
2023-10-14T01:13:40.300Z,101391.44
2023-10-14T01:16:07.913Z,101408.78
2023-10-14T01:18:36.421Z,101381.91
2023-10-14T01:21:04.195Z,101447.13
2023-10-14T01:23:33.277Z,101442.94
2023-10-14T01:26:01.131Z,101390.09
2023-10-14T01:28:28.727Z,101335.44
2023-10-14T01:31:08.529Z,101391.81
2023-10-14T01:33:36.378Z,101406.53
2023-10-14T01:36:04.220Z,101349.25
2023-10-14T01:38:33.573Z,101348.41
2023-10-14T01:41:01.145Z,101432.53
2023-10-14T01:43:29.023Z,101447.19
2023-10-14T01:45:56.952Z,101377.75
2023-10-14T01:48:24.851Z,101442.69
2023-10-14T01:50:53.694Z,101373.31
2023-10-14T01:53:21.711Z,101343.75
2023-10-14T01:55:53.760Z,101371.66
2023-10-14T01:58:22.747Z,101312.81
2023-10-14T02:00:51.262Z,101336.34
2023-10-14T02:03:21.502Z,101368.47
2023-10-14T02:05:49.677Z,101427.34
2023-10-14T02:08:17.254Z,101417.94
2023-10-14T02:10:45.520Z,101371.94
2023-10-14T02:13:15.448Z,101430.00
2023-10-14T02:15:43.382Z,101397.06
2023-10-14T02:18:10.943Z,101377.94
2023-10-14T02:20:38.941Z,101360.53
2023-10-14T02:23:07.050Z,101329.22
2023-10-14T02:25:34.620Z,101389.88
2023-10-14T02:28:02.231Z,101341.31
2023-10-14T02:30:32.710Z,101372.56
2023-10-14T02:33:00.276Z,101335.28
2023-10-14T02:35:28.187Z,101338.69
2023-10-14T02:37:55.887Z,101368.13
2023-10-14T02:40:23.450Z,101385.53
2023-10-14T02:42:51.368Z,101427.16
2023-10-14T02:45:19.157Z,101363.81
2023-10-14T02:47:48.201Z,101356.13
2023-10-14T02:50:16.101Z,101366.56
2023-10-14T02:52:43.707Z,101402.16
2023-10-14T02:55:11.557Z,101337.22
2023-10-14T02:57:39.416Z,101333.78
2023-10-14T03:00:08.359Z,101305.19
2023-10-14T03:02:36.024Z,101347.63
2023-10-14T03:05:05.932Z,101357.16
2023-10-14T03:07:33.605Z,101341.47
2023-10-14T03:10:02.896Z,101394.41
2023-10-14T03:12:30.854Z,101393.56
2023-10-14T03:14:58.434Z,101302.56
2023-10-14T03:17:26.055Z,101351.13
2023-10-14T03:19:54.381Z,101338.06
2023-10-14T03:22:24.319Z,101299.06
2023-10-14T03:24:51.940Z,101359.72
2023-10-14T03:27:20.482Z,101315.38
2023-10-14T03:29:48.458Z,101319.81
2023-10-14T03:32:16.135Z,101349.25
2023-10-14T03:34:43.834Z,101409.94
2023-10-14T03:37:11.402Z,101323.28
2023-10-14T03:39:40.801Z,101301.69
2023-10-14T03:42:08.967Z,101352.09
2023-10-14T03:44:36.501Z,101358.25
2023-10-14T03:47:05.133Z,101370.44
2023-10-14T03:49:32.886Z,101358.31
2023-10-14T03:52:00.477Z,101351.41
2023-10-14T03:54:28.118Z,101392.94
2023-10-14T03:56:57.487Z,101287.09
2023-10-14T03:59:25.575Z,101305.25
2023-10-14T04:01:54.604Z,101295.75
2023-10-14T04:04:23.116Z,101367.72
2023-10-14T04:06:52.156Z,101403.28
2023-10-14T04:09:19.891Z,101363.44
2023-10-14T04:11:47.565Z,101305.34
2023-10-14T04:14:16.562Z,101352.94
2023-10-14T04:16:44.140Z,101355.50
2023-10-14T04:19:12.102Z,101364.09
2023-10-14T04:21:39.658Z,101314.63
2023-10-14T04:24:08.032Z,101383.91
2023-10-14T04:26:35.909Z,101347.59
2023-10-14T04:29:04.000Z,101303.38
2023-10-14T04:31:33.679Z,101326.81
2023-10-14T04:34:01.651Z,101411.81
2023-10-14T04:36:29.606Z,101360.72
2023-10-14T04:38:57.085Z,101381.47
2023-10-14T04:41:24.944Z,101381.31
2023-10-14T04:43:52.738Z,101433.28
2023-10-14T04:46:20.401Z,101340.50
2023-10-14T04:48:49.975Z,101386.28
2023-10-14T04:51:18.187Z,101331.56
2023-10-14T04:53:46.000Z,101313.22
2023-10-14T04:56:14.082Z,101395.44
2023-10-14T04:58:41.875Z,101333.69
2023-10-14T05:01:10.838Z,101380.38
2023-10-14T05:03:38.878Z,101349.09
2023-10-14T05:06:17.874Z,101373.13
2023-10-14T05:08:48.038Z,101434.69
2023-10-14T05:11:16.843Z,101432.81
2023-10-14T05:13:46.128Z,101383.38
2023-10-14T05:16:15.160Z,101345.22
2023-10-14T05:18:43.238Z,101386.56
2023-10-14T05:21:15.588Z,101442.78
2023-10-14T05:23:43.707Z,101376.66
2023-10-14T05:26:13.536Z,101356.53
2023-10-14T05:28:43.568Z,101399.72
2023-10-14T05:31:11.686Z,101386.38
2023-10-14T05:33:45.231Z,101378.41
2023-10-14T05:36:16.426Z,101411.78
2023-10-14T05:38:49.647Z,101399.38
2023-10-14T05:41:20.078Z,101438.94
2023-10-14T05:43:55.480Z,101444.69
2023-10-14T05:46:24.250Z,101357.84
2023-10-14T05:48:55.181Z,101348.81
2023-10-14T05:51:37.397Z,101412.38
2023-10-14T05:54:21.330Z,101352.41
2023-10-14T05:56:58.849Z,101363.16
2023-10-14T05:59:30.632Z,101457.78
2023-10-14T06:02:11.283Z,101439.03
2023-10-14T06:04:55.611Z,101445.50
2023-10-14T06:07:37.875Z,101479.66
2023-10-14T06:10:16.226Z,101489.72
2023-10-14T06:12:55.213Z,101429.94
2023-10-14T06:15:43.814Z,101514.97
2023-10-14T06:18:20.541Z,101455.84
2023-10-14T06:21:12.057Z,101524.41
2023-10-14T06:23:44.870Z,101454.72
2023-10-14T06:26:12.871Z,101494.50
2023-10-14T06:28:43.207Z,101522.66
2023-10-14T06:31:11.449Z,101439.47
2023-10-14T06:33:39.396Z,101443.59
2023-10-14T06:36:07.629Z,101475.91
2023-10-14T06:38:56.316Z,101501.41
2023-10-14T06:42:22.000Z,101402.72
2023-10-14T06:44:54.104Z,101379.72
2023-10-14T06:47:25.401Z,101441.09
2023-10-14T06:50:01.317Z,101396.88
2023-10-14T06:52:37.470Z,101383.19
2023-10-14T06:55:18.592Z,101434.00
2023-10-14T06:57:49.827Z,101420.00
2023-10-14T07:00:20.614Z,101379.25
2023-10-14T07:02:52.292Z,101375.78
2023-10-14T07:05:26.862Z,101342.56
2023-10-14T07:08:00.069Z,101332.16
2023-10-14T07:10:33.694Z,101343.28
2023-10-14T07:13:03.196Z,101327.13
2023-10-14T07:15:53.797Z,101302.50
2023-10-14T07:18:35.290Z,101303.53
2023-10-14T07:21:17.343Z,101341.41
2023-10-14T07:23:53.003Z,101341.34
2023-10-14T07:26:30.731Z,101282.84
2023-10-14T07:28:58.403Z,101357.84
2023-10-14T07:31:26.257Z,101319.34
2023-10-14T07:34:05.569Z,101307.06
2023-10-14T07:36:33.479Z,101249.72
2023-10-14T07:39:04.676Z,101250.56
2023-10-14T07:41:37.336Z,101296.81
2023-10-14T07:44:08.931Z,101328.25
2023-10-14T07:46:39.229Z,101312.63
2023-10-14T07:49:11.247Z,101249.56
2023-10-14T07:52:00.093Z,101249.94
2023-10-14T07:54:34.137Z,101305.75
2023-10-14T07:57:12.282Z,101239.75
2023-10-14T07:59:44.924Z,101273.28
2023-10-14T08:02:18.492Z,101261.72
2023-10-14T08:04:53.849Z,101304.44
2023-10-14T08:07:23.821Z,101233.72
2023-10-14T08:09:55.425Z,101289.56
2023-10-14T08:12:26.929Z,101300.94
2023-10-14T08:15:02.039Z,101257.81
2023-10-14T08:17:41.496Z,101230.75
2023-10-14T08:20:10.430Z,101271.50
2023-10-14T08:22:48.479Z,101218.97
2023-10-14T08:25:19.298Z,101300.69
2023-10-14T08:27:55.661Z,101301.97
2023-10-14T08:30:26.859Z,101224.53
2023-10-14T08:33:00.249Z,101271.59
2023-10-14T08:35:30.144Z,101297.69
2023-10-14T08:38:21.440Z,101211.50
2023-10-14T08:41:13.560Z,101222.78
2023-10-14T08:44:01.143Z,101256.31
2023-10-14T08:46:36.089Z,101289.47
2023-10-14T08:49:18.328Z,101294.41
2023-10-14T08:52:00.349Z,101265.72
2023-10-14T08:54:41.658Z,101196.34
2023-10-14T08:57:15.169Z,101241.75
2023-10-14T09:00:11.664Z,101210.47
2023-10-14T09:02:44.782Z,101207.19
2023-10-14T09:05:16.258Z,101255.63
2023-10-14T09:07:49.007Z,101220.53
2023-10-14T09:10:31.105Z,101230.78
2023-10-14T09:13:10.919Z,101180.13
2023-10-14T09:15:44.035Z,101212.22
2023-10-14T09:18:23.621Z,101211.63
2023-10-14T09:21:05.356Z,101203.53
2023-10-14T09:23:33.910Z,101167.63
2023-10-14T09:26:05.329Z,101233.66
2023-10-14T09:28:34.732Z,101200.28
2023-10-14T09:31:11.712Z,101162.38
2023-10-14T09:33:44.168Z,101207.16
2023-10-14T09:36:13.316Z,101202.59
2023-10-14T09:38:46.167Z,101188.28
2023-10-14T09:41:14.299Z,101176.03
2023-10-14T09:43:46.142Z,101219.13
2023-10-14T09:46:19.242Z,101183.16
2023-10-14T09:48:49.150Z,101176.34
2023-10-14T09:51:18.097Z,101167.78
2023-10-14T09:53:48.319Z,101165.97
2023-10-14T09:56:20.643Z,101164.84
2023-10-14T09:58:55.439Z,101123.91
2023-10-14T10:01:24.953Z,101207.09
2023-10-14T10:03:56.974Z,101140.91
2023-10-14T10:06:36.382Z,101115.69
2023-10-14T10:09:31.143Z,101115.47
2023-10-14T10:12:01.734Z,101105.59
2023-10-14T10:14:38.495Z,101158.84
2023-10-14T10:17:07.692Z,101179.31
2023-10-14T10:20:07.870Z,101111.69
2023-10-14T10:22:46.183Z,101184.25
2023-10-14T10:25:20.041Z,101108.53
2023-10-14T10:27:48.027Z,101113.03
2023-10-14T10:30:21.316Z,101152.06
2023-10-14T10:32:52.251Z,101107.66
2023-10-14T10:35:21.096Z,101102.09
2023-10-14T10:37:52.470Z,101153.06
2023-10-14T10:40:21.282Z,101160.72
2023-10-14T10:42:52.376Z,101125.25
2023-10-14T10:45:22.410Z,101101.84
2023-10-14T10:48:07.938Z,101104.78
2023-10-14T10:50:42.628Z,101112.22
2023-10-14T10:53:20.982Z,101127.03
2023-10-14T10:55:49.620Z,101115.97
2023-10-14T10:58:20.450Z,101097.47
2023-10-14T11:00:55.694Z,101107.69
2023-10-14T11:03:28.171Z,101087.56
2023-10-14T11:05:58.555Z,101068.41
2023-10-14T11:08:28.683Z,101117.06
2023-10-14T11:10:59.371Z,101101.34
2023-10-14T11:13:27.406Z,101064.06
2023-10-14T11:15:55.035Z,101069.88
2023-10-14T11:18:37.689Z,101062.06
2023-10-14T11:21:08.286Z,101076.84
2023-10-14T11:23:36.130Z,101061.88
2023-10-14T11:26:10.369Z,101072.22
2023-10-14T11:28:44.649Z,101034.22
2023-10-14T11:31:13.051Z,101051.38
2023-10-14T11:33:45.480Z,101090.63
2023-10-14T11:36:21.227Z,101104.28
2023-10-14T11:38:49.467Z,101090.97
2023-10-14T11:41:20.924Z,101066.72
2023-10-14T11:43:51.605Z,101078.19
2023-10-14T11:46:22.667Z,101044.94
2023-10-14T11:49:10.233Z,101062.00
2023-10-14T11:51:52.399Z,101025.09
2023-10-14T11:54:26.406Z,101105.50
2023-10-14T11:56:56.967Z,101036.94
2023-10-14T11:59:30.116Z,101022.75
2023-10-14T12:02:06.305Z,101095.47
2023-10-14T12:04:38.078Z,101090.63
2023-10-14T12:07:09.962Z,101036.53
2023-10-14T12:09:40.923Z,101005.53
2023-10-14T12:12:12.268Z,101020.97
2023-10-14T12:14:40.108Z,101085.69
2023-10-14T12:17:15.946Z,101083.50
2023-10-14T12:19:43.793Z,101037.88
2023-10-14T12:22:15.702Z,101084.47
2023-10-14T12:24:43.716Z,101006.56
2023-10-14T12:27:11.469Z,101029.56
2023-10-14T12:29:41.477Z,101010.00
2023-10-14T12:32:18.300Z,100991.50
2023-10-14T12:34:53.556Z,101076.09
2023-10-14T12:37:26.525Z,101023.63
2023-10-14T12:39:56.260Z,101036.28
2023-10-14T12:42:33.050Z,100996.78
2023-10-14T12:45:02.199Z,101027.41
2023-10-14T12:47:34.683Z,101065.03
2023-10-14T12:50:02.668Z,101014.47
2023-10-14T12:52:42.506Z,101015.53
2023-10-14T12:55:10.245Z,101026.22
2023-10-14T12:57:39.730Z,100996.13
2023-10-14T13:00:14.166Z,101056.75
2023-10-14T13:02:42.066Z,100984.56
2023-10-14T13:05:12.760Z,100983.53
2023-10-14T13:07:49.004Z,100991.16
2023-10-14T13:10:17.381Z,100975.50
2023-10-14T13:12:45.026Z,101011.16
2023-10-14T13:15:14.340Z,101006.63
2023-10-14T13:17:42.670Z,101021.75
2023-10-14T13:20:11.170Z,101014.81
2023-10-14T13:22:45.581Z,101000.19
2023-10-14T13:25:21.347Z,101041.09
2023-10-14T13:27:58.553Z,101039.75
2023-10-14T13:30:30.465Z,100991.41
2023-10-14T13:33:05.857Z,101002.09
2023-10-14T13:35:34.077Z,100947.72
2023-10-14T13:38:03.399Z,100978.75
2023-10-14T13:40:40.154Z,100956.75
2023-10-14T13:43:11.981Z,101028.22
2023-10-14T13:45:39.610Z,101025.34
2023-10-14T13:48:09.871Z,100973.84
2023-10-14T13:50:40.345Z,100952.00
2023-10-14T13:53:11.837Z,100974.69
2023-10-14T13:55:43.068Z,101006.31
2023-10-14T13:58:12.790Z,100958.38
2023-10-14T14:00:44.065Z,100954.97
2023-10-14T14:03:13.164Z,100979.31
2023-10-14T14:05:47.579Z,100961.06
2023-10-14T14:08:21.708Z,100974.28
2023-10-14T14:10:51.837Z,101027.34
2023-10-14T14:13:33.047Z,100948.41
2023-10-14T14:16:06.884Z,100982.47
2023-10-14T14:18:37.730Z,100947.84
2023-10-14T14:21:07.433Z,101028.25
2023-10-14T14:23:37.012Z,100978.00
2023-10-14T14:26:10.813Z,100969.84
2023-10-14T14:28:43.339Z,101027.09
2023-10-14T14:31:11.117Z,100945.22
2023-10-14T14:33:38.807Z,100988.38
2023-10-14T14:36:15.432Z,100999.31
2023-10-14T14:38:49.727Z,100951.00
2023-10-14T14:41:20.004Z,100983.69
2023-10-14T14:43:51.687Z,101026.84
2023-10-14T14:46:22.872Z,100982.75
2023-10-14T14:48:50.858Z,100926.94
2023-10-14T14:51:18.580Z,100977.13
2023-10-14T14:53:51.468Z,100985.59
2023-10-14T14:56:19.261Z,100992.84
2023-10-14T14:58:54.316Z,101044.16
2023-10-14T15:01:23.743Z,101012.13
2023-10-14T15:03:54.355Z,100986.47
2023-10-14T15:06:22.609Z,100998.44
2023-10-14T15:09:00.565Z,101042.81
2023-10-14T15:11:32.958Z,100965.41
2023-10-14T15:14:02.314Z,100966.53
2023-10-14T15:16:42.145Z,101035.13
2023-10-14T15:19:11.644Z,100975.47
2023-10-14T15:21:39.519Z,100995.25
2023-10-14T15:24:12.444Z,101017.31
2023-10-14T15:26:50.509Z,101009.84
2023-10-14T15:29:20.405Z,101004.06
2023-10-14T15:31:50.137Z,100975.09
2023-10-14T15:34:18.226Z,101054.34
2023-10-14T15:36:49.287Z,101012.09
2023-10-14T15:39:18.590Z,101052.00
2023-10-14T15:41:47.160Z,101011.25
2023-10-14T15:44:14.933Z,101022.13
2023-10-14T15:46:48.447Z,101023.56
2023-10-14T15:49:20.838Z,100961.63
2023-10-14T15:51:50.464Z,101019.38
2023-10-14T15:54:26.360Z,101001.03
2023-10-14T15:56:56.279Z,101049.34
2023-10-14T15:59:25.365Z,101061.19
2023-10-14T16:01:53.599Z,100974.19
2023-10-14T16:04:21.626Z,100974.53
2023-10-14T16:06:53.959Z,101008.84
2023-10-14T16:09:28.517Z,101013.47
2023-10-14T16:11:59.246Z,101042.84
2023-10-14T16:14:28.690Z,101029.41
2023-10-14T16:16:56.437Z,100981.13
2023-10-14T16:19:26.940Z,101052.56
2023-10-14T16:21:58.289Z,101056.25
2023-10-14T16:24:27.704Z,101007.66
2023-10-14T16:26:55.593Z,101045.09
2023-10-14T16:29:25.709Z,101019.81
2023-10-14T16:31:53.729Z,100995.81
2023-10-14T16:34:21.544Z,100996.31
2023-10-14T16:36:51.359Z,101007.53
2023-10-14T16:39:21.848Z,100945.31
2023-10-14T16:41:51.441Z,100988.66
2023-10-14T16:44:19.112Z,100949.47
2023-10-14T16:46:46.942Z,100985.69
2023-10-14T16:49:14.972Z,100941.56
2023-10-14T16:51:42.724Z,100947.00
2023-10-14T16:54:10.355Z,101032.34
2023-10-14T16:56:38.446Z,100973.28
2023-10-14T16:59:07.708Z,100972.19
2023-10-14T17:01:38.410Z,100947.03
2023-10-14T17:04:06.720Z,100977.59
2023-10-14T17:06:34.525Z,100975.47
2023-10-14T17:09:02.377Z,100987.25
2023-10-14T17:11:30.415Z,100980.22
2023-10-14T17:13:59.585Z,100974.31
2023-10-14T17:16:31.773Z,101025.44
2023-10-14T17:18:59.560Z,100969.69
2023-10-14T17:21:27.225Z,101022.50
2023-10-14T17:23:57.223Z,101018.88
2023-10-14T17:26:25.044Z,100984.75
2023-10-14T17:28:52.797Z,101004.06
2023-10-14T17:31:20.754Z,100980.00
2023-10-14T17:33:51.656Z,100933.69
2023-10-14T17:36:19.458Z,101018.88
2023-10-14T17:38:47.339Z,100980.59
2023-10-14T17:41:15.746Z,100960.47
2023-10-14T17:43:43.585Z,100966.06
2023-10-14T17:46:14.474Z,100962.63
2023-10-14T17:48:42.492Z,101015.97
2023-10-14T17:51:13.499Z,100974.28
2023-10-14T17:53:44.447Z,100957.50
2023-10-14T17:56:13.601Z,100966.00
2023-10-14T17:58:41.617Z,100968.66
2023-10-14T18:01:14.918Z,100998.25
2023-10-14T18:03:43.763Z,100977.81
2023-10-14T18:06:14.601Z,100991.25
2023-10-14T18:08:42.742Z,100930.25
2023-10-14T18:11:12.474Z,100975.63
2023-10-14T18:13:40.413Z,100961.75
2023-10-14T18:16:09.776Z,100940.81
2023-10-14T18:18:37.564Z,100918.91
2023-10-14T18:21:08.085Z,101000.00
2023-10-14T18:23:37.333Z,100954.78
2023-10-14T18:26:05.783Z,100943.97
2023-10-14T18:28:33.583Z,101001.34
2023-10-14T18:31:01.576Z,100988.19
2023-10-14T18:33:29.582Z,100992.59
2023-10-14T18:35:57.279Z,100921.16
2023-10-14T18:38:24.969Z,100943.69
2023-10-14T18:40:54.280Z,100973.53
2023-10-14T18:43:22.152Z,101009.63
2023-10-14T18:45:50.096Z,100931.31
2023-10-14T18:48:21.110Z,100989.69
2023-10-14T18:50:48.753Z,101026.66
2023-10-14T18:53:19.453Z,101016.19
2023-10-14T18:55:50.790Z,101005.72
2023-10-14T18:58:23.141Z,100993.84
2023-10-14T19:00:50.827Z,101018.25
2023-10-14T19:03:18.671Z,100985.72
2023-10-14T19:05:46.704Z,100963.56
2023-10-14T19:08:14.835Z,100975.13
2023-10-14T19:10:43.287Z,100967.25
2023-10-14T19:13:11.084Z,100939.47
2023-10-14T19:15:40.505Z,101013.56
2023-10-14T19:18:09.585Z,100935.31
2023-10-14T19:20:38.863Z,100955.78
2023-10-14T19:23:11.922Z,100920.13
2023-10-14T19:25:42.881Z,100899.00
2023-10-14T19:28:11.032Z,100947.84
2023-10-14T19:30:41.478Z,100940.78
2023-10-14T19:33:09.964Z,100884.13
2023-10-14T19:35:39.100Z,100893.81
2023-10-14T19:38:06.891Z,100941.66
2023-10-14T19:40:35.187Z,100898.38
2023-10-14T19:43:02.822Z,100939.72
2023-10-14T19:45:30.916Z,100976.72
2023-10-14T19:48:00.357Z,100950.94
2023-10-14T19:50:28.441Z,100945.00
2023-10-14T19:52:55.967Z,100947.69
2023-10-14T19:55:23.867Z,100925.91
2023-10-14T19:57:52.857Z,100947.09
2023-10-14T20:00:21.694Z,100908.59
2023-10-14T20:02:50.136Z,100972.69
2023-10-14T20:05:20.209Z,100913.47
2023-10-14T20:07:48.226Z,100915.25
2023-10-14T20:10:16.336Z,100925.56
2023-10-14T20:12:44.200Z,100963.75
2023-10-14T20:15:11.901Z,100913.03
2023-10-14T20:17:40.286Z,100900.19
2023-10-14T20:20:09.149Z,100966.63
2023-10-14T20:22:38.304Z,100925.06
2023-10-14T20:25:06.611Z,100916.84
2023-10-14T20:27:34.341Z,100900.41
2023-10-14T20:30:01.962Z,100872.06
2023-10-14T20:32:30.108Z,100891.16
2023-10-14T20:34:57.756Z,100857.56
2023-10-14T20:37:25.258Z,100905.88
2023-10-14T20:39:54.561Z,100924.25
2023-10-14T20:42:22.105Z,100896.69
2023-10-14T20:44:49.672Z,100918.50
2023-10-14T20:47:17.804Z,100893.44
2023-10-14T20:49:45.506Z,100862.28
2023-10-14T20:52:13.262Z,100875.75
2023-10-14T20:54:40.998Z,100872.59
2023-10-14T20:57:10.123Z,100928.81
2023-10-14T20:59:37.771Z,100842.06
2023-10-14T21:02:05.632Z,100830.50
2023-10-14T21:04:33.605Z,100934.22
2023-10-14T21:07:01.492Z,100880.16
2023-10-14T21:09:29.399Z,100889.72
2023-10-14T21:11:57.226Z,100893.13
2023-10-14T21:14:26.369Z,100867.28
2023-10-14T21:16:54.201Z,100907.41
2023-10-14T21:19:22.051Z,100853.81
2023-10-14T21:21:52.175Z,100855.28
2023-10-14T21:24:20.043Z,100871.41
2023-10-14T21:26:47.807Z,100847.13
2023-10-14T21:29:15.406Z,100908.91
2023-10-14T21:31:44.720Z,100809.66
2023-10-14T21:34:12.636Z,100909.19
2023-10-14T21:36:40.380Z,100907.34
2023-10-14T21:39:08.251Z,100857.75
2023-10-14T21:41:36.035Z,100878.31
2023-10-14T21:44:03.904Z,100806.81
2023-10-14T21:46:35.868Z,100822.44
2023-10-14T21:49:06.404Z,100862.91
2023-10-14T21:51:34.198Z,100861.25
2023-10-14T21:54:01.936Z,100803.69
2023-10-14T21:56:29.680Z,100781.16
2023-10-14T21:58:57.564Z,100875.66
2023-10-14T22:01:25.375Z,100814.53
2023-10-14T22:03:55.591Z,100763.75
2023-10-14T22:06:27.480Z,100794.34
2023-10-14T22:08:55.174Z,100827.63
2023-10-14T22:11:24.525Z,100793.09
2023-10-14T22:13:57.870Z,100873.16
2023-10-14T22:16:43.113Z,100822.16
2023-10-14T22:19:13.140Z,100863.59
2023-10-14T22:21:47.909Z,100821.56
2023-10-14T22:24:18.376Z,100798.97
2023-10-14T22:26:46.309Z,100828.22
2023-10-14T22:29:16.288Z,100802.94
2023-10-14T22:31:46.049Z,100778.06
2023-10-14T22:34:13.907Z,100795.69
2023-10-14T22:36:43.193Z,100817.28
2023-10-14T22:39:14.662Z,100800.94
2023-10-14T22:41:42.687Z,100763.91
2023-10-14T22:44:10.447Z,100856.69
2023-10-14T22:46:40.616Z,100810.59
2023-10-14T22:49:12.166Z,100806.31
2023-10-14T22:51:43.263Z,100816.31
2023-10-14T22:54:10.986Z,100809.81
2023-10-14T22:56:45.798Z,100855.53
2023-10-14T22:59:13.808Z,100761.22
2023-10-14T23:01:41.808Z,100821.38
2023-10-14T23:04:12.395Z,100762.50
2023-10-14T23:06:47.718Z,100797.09
2023-10-14T23:09:18.179Z,100760.78
2023-10-14T23:11:46.402Z,100757.19
2023-10-14T23:14:14.348Z,100771.38
2023-10-14T23:16:44.574Z,100806.47
2023-10-14T23:19:14.913Z,100739.13
2023-10-14T23:21:44.257Z,100765.19
2023-10-14T23:24:17.890Z,100736.44
2023-10-14T23:26:50.804Z,100840.88
2023-10-14T23:29:24.220Z,100780.53
2023-10-14T23:31:52.073Z,100749.09
2023-10-14T23:34:39.512Z,100790.16
2023-10-14T23:37:20.508Z,100781.50
2023-10-14T23:40:00.656Z,100719.28
2023-10-14T23:42:36.297Z,100744.19
2023-10-14T23:45:04.693Z,100771.78
2023-10-14T23:47:39.174Z,100741.03
2023-10-14T23:50:10.389Z,100718.56
2023-10-14T23:52:50.223Z,100782.06
2023-10-14T23:58:30.742Z,100745.63
